Time;durP1;ratioP1;P1;durP2;ratioP2;P2;SDS_P1;SDS_P2;PMS_P1;PMS_P2;Temp;Humidity;BMP_temperature;BMP_pressure;BME280_temperature;BME280_humidity;BME280_pressure;Samples;Min_cycle;Max_cycle;Signal;HPM_P1;HPM_P2
2023/08/08 00:02:14;;;;;;;8.25;2.17;;;15.10;99.90;;;;;;5132327;27;20047;-78
2023/08/08 00:05:00;;;;;;;10.82;1.52;;;15.10;99.90;;;;;;5132147;27;20452;-78
2023/08/08 00:07:46;;;;;;;8.10;1.45;;;15.10;99.90;;;;;;5119841;27;20513;-78
2023/08/08 00:10:32;;;;;;;9.43;1.60;;;15.10;99.90;;;;;;5153045;27;20050;-78
2023/08/08 00:13:19;;;;;;;7.88;2.20;;;15.10;99.90;;;;;;5152392;27;20078;-78
2023/08/08 00:16:05;;;;;;;5.78;1.30;;;15.10;99.90;;;;;;5133830;27;20050;-78
2023/08/08 00:18:53;;;;;;;4.78;1.40;;;15.10;99.90;;;;;;5134152;27;20043;-77
2023/08/08 00:21:39;;;;;;;6.82;1.25;;;15.10;99.90;;;;;;5119831;27;20061;-78
2023/08/08 00:24:25;;;;;;;4.95;1.25;;;15.10;99.90;;;;;;5111800;27;20043;-78
2023/08/08 00:27:11;;;;;;;6.68;1.60;;;15.00;99.90;;;;;;5153035;27;20095;-78
2023/08/08 00:29:57;;;;;;;4.63;1.10;;;15.00;99.90;;;;;;5119988;27;20047;-78
2023/08/08 00:32:44;;;;;;;5.22;0.88;;;15.00;99.90;;;;;;5152297;27;20043;-77
2023/08/08 00:35:30;;;;;;;7.03;1.42;;;15.00;99.90;;;;;;5151955;27;20047;-77
2023/08/08 00:38:18;;;;;;;10.48;1.23;;;14.90;99.90;;;;;;5152715;27;20134;-78
2023/08/08 00:41:04;;;;;;;13.45;1.40;;;14.90;99.90;;;;;;5136295;27;20495;-78
2023/08/08 00:43:50;;;;;;;7.65;1.15;;;14.80;99.90;;;;;;5151671;27;20107;-78
2023/08/08 00:46:36;;;;;;;4.45;1.20;;;14.80;99.90;;;;;;5136825;27;20042;-78
2023/08/08 00:49:23;;;;;;;8.02;1.50;;;14.70;99.90;;;;;;5134760;27;20051;-78
2023/08/08 00:52:10;;;;;;;6.70;1.40;;;14.70;99.90;;;;;;5152099;27;20043;-78
2023/08/08 00:54:56;;;;;;;6.40;1.35;;;14.70;99.90;;;;;;5152507;27;20043;-78
2023/08/08 00:57:43;;;;;;;9.77;1.73;;;14.70;99.90;;;;;;5133523;27;20383;-78
2023/08/08 01:00:29;;;;;;;10.20;1.85;;;14.70;99.90;;;;;;5119068;27;20055;-78
2023/08/08 01:03:15;;;;;;;5.20;1.45;;;14.80;99.90;;;;;;5151402;27;20557;-79
2023/08/08 01:06:08;;;;;;;10.45;2.03;;;14.70;99.90;;;;;;5133076;27;20050;-79
2023/08/08 01:09:00;;;;;;;8.20;1.30;;;14.70;99.90;;;;;;5151085;27;20147;-77
2023/08/08 01:11:48;;;;;;;9.35;1.45;;;14.70;99.90;;;;;;5151304;27;20043;-79
2023/08/08 01:14:35;;;;;;;6.32;1.67;;;14.70;99.90;;;;;;5151192;27;20054;-78
2023/08/08 01:17:22;;;;;;;11.40;2.33;;;14.70;99.90;;;;;;5135664;27;20440;-79
2023/08/08 01:20:10;;;;;;;7.13;1.27;;;14.70;99.90;;;;;;5150628;27;20467;-78
2023/08/08 01:23:08;;;;;;;8.88;1.48;;;14.70;99.90;;;;;;5135921;27;20138;-78
2023/08/08 01:25:57;;;;;;;7.10;1.60;;;14.70;99.90;;;;;;5134193;27;20043;-78
2023/08/08 01:28:44;;;;;;;7.45;2.05;;;14.80;99.90;;;;;;5150818;27;20046;-79
2023/08/08 01:31:30;;;;;;;5.63;1.58;;;14.70;99.90;;;;;;5122853;27;20070;-77
2023/08/08 01:34:16;;;;;;;5.40;1.35;;;14.80;99.90;;;;;;5152118;27;20078;-79
2023/08/08 01:37:22;;;;;;;5.68;1.67;;;14.70;99.90;;;;;;5151440;27;20049;-78
2023/08/08 01:40:10;;;;;;;7.20;1.55;;;14.80;99.90;;;;;;5132353;27;20059;-78
2023/08/08 01:42:57;;;;;;;5.05;1.13;;;14.80;99.90;;;;;;5150352;27;20054;-79
2023/08/08 01:45:43;;;;;;;5.72;1.52;;;14.90;99.90;;;;;;5150752;27;20057;-79
2023/08/08 01:48:30;;;;;;;5.20;1.50;;;14.90;99.90;;;;;;5150448;27;20447;-79
2023/08/08 01:51:16;;;;;;;7.05;1.60;;;14.90;99.90;;;;;;5151100;27;20052;-79
2023/08/08 01:54:02;;;;;;;7.22;1.92;;;15.00;99.90;;;;;;5150636;27;20042;-78
2023/08/08 01:56:49;;;;;;;7.75;1.40;;;15.00;99.90;;;;;;5117249;27;20135;-78
2023/08/08 01:59:35;;;;;;;3.63;1.40;;;15.00;99.90;;;;;;5117788;27;20042;-77
2023/08/08 02:02:21;;;;;;;9.27;1.65;;;15.10;99.90;;;;;;5150898;27;20503;-79
2023/08/08 02:05:07;;;;;;;9.00;1.33;;;15.00;99.90;;;;;;5150201;27;20141;-79
2023/08/08 02:07:53;;;;;;;6.43;1.60;;;15.00;99.90;;;;;;5131925;27;20055;-77
2023/08/08 02:10:39;;;;;;;6.53;1.30;;;15.00;99.90;;;;;;5132248;27;20129;-78
2023/08/08 02:13:26;;;;;;;9.50;1.60;;;15.10;99.90;;;;;;5131902;27;20046;-78
2023/08/08 02:16:12;;;;;;;6.75;1.38;;;15.10;99.90;;;;;;5150932;27;20061;-78
2023/08/08 02:18:58;;;;;;;10.25;1.45;;;15.20;99.90;;;;;;5151004;27;20439;-78
2023/08/08 02:21:44;;;;;;;6.18;1.55;;;15.20;99.90;;;;;;5150788;27;20055;-78
2023/08/08 02:24:30;;;;;;;8.98;1.70;;;15.20;99.90;;;;;;5131672;27;20046;-78
2023/08/08 02:27:16;;;;;;;8.23;2.15;;;15.20;99.90;;;;;;5150044;27;20082;-79
2023/08/08 02:30:03;;;;;;;5.63;1.25;;;15.30;99.90;;;;;;5149964;27;20055;-78
2023/08/08 02:32:49;;;;;;;8.93;1.98;;;15.20;99.90;;;;;;5135947;27;20073;-78
2023/08/08 02:35:37;;;;;;;8.45;1.95;;;15.20;99.90;;;;;;5149781;27;20047;-79
2023/08/08 02:38:23;;;;;;;7.07;1.20;;;15.20;99.90;;;;;;5155310;27;20042;-78
2023/08/08 02:41:09;;;;;;;18.23;3.85;;;15.20;99.90;;;;;;5140600;27;20053;-79
2023/08/08 02:43:55;;;;;;;5.97;1.35;;;15.10;99.90;;;;;;5154860;27;20490;-78
2023/08/08 02:46:41;;;;;;;8.43;1.90;;;15.10;99.90;;;;;;5155263;27;20046;-78
2023/08/08 02:49:28;;;;;;;7.13;2.15;;;15.10;99.90;;;;;;5135420;27;20050;-78
2023/08/08 02:52:14;;;;;;;6.78;1.75;;;15.10;99.90;;;;;;5154298;27;20046;-80
2023/08/08 02:55:02;;;;;;;6.82;1.42;;;15.10;99.90;;;;;;5154324;27;20133;-79
2023/08/08 02:57:48;;;;;;;5.30;1.30;;;15.10;99.90;;;;;;5153859;27;20047;-79
2023/08/08 03:00:34;;;;;;;7.93;1.30;;;15.10;99.90;;;;;;5138849;27;20130;-79
2023/08/08 03:03:20;;;;;;;9.68;2.08;;;15.10;99.90;;;;;;5137408;27;20050;-80
2023/08/08 03:06:07;;;;;;;7.43;1.23;;;15.00;99.90;;;;;;5153402;27;20133;-79
2023/08/08 03:08:53;;;;;;;6.68;1.33;;;15.00;99.90;;;;;;5137868;27;20090;-77
2023/08/08 03:11:41;;;;;;;7.50;1.40;;;15.00;99.90;;;;;;5153801;27;20502;-78
2023/08/08 03:14:27;;;;;;;6.63;1.50;;;15.00;99.90;;;;;;5121860;27;20046;-79
2023/08/08 03:17:13;;;;;;;11.93;2.20;;;15.00;99.90;;;;;;5154315;27;20039;-78
2023/08/08 03:20:00;;;;;;;7.97;1.38;;;15.00;99.90;;;;;;5154574;27;20091;-79
2023/08/08 03:22:46;;;;;;;4.88;1.20;;;15.00;99.90;;;;;;5154094;27;20142;-79
2023/08/08 03:25:32;;;;;;;7.25;1.10;;;15.00;99.90;;;;;;5154055;27;20050;-78
2023/08/08 03:28:18;;;;;;;8.45;1.30;;;14.90;99.90;;;;;;5121232;27;20088;-79
2023/08/08 03:31:04;;;;;;;8.88;1.25;;;14.90;99.90;;;;;;5153751;27;20097;-79
2023/08/08 03:33:50;;;;;;;7.15;1.33;;;14.90;99.90;;;;;;5153277;27;20046;-78
2023/08/08 03:36:36;;;;;;;5.95;1.55;;;14.90;99.90;;;;;;5120425;27;20474;-78
2023/08/08 03:39:22;;;;;;;11.77;2.17;;;14.90;99.90;;;;;;5134408;27;20091;-79
2023/08/08 03:42:09;;;;;;;4.10;1.65;;;14.90;99.90;;;;;;5137252;27;20038;-78
2023/08/08 03:44:55;;;;;;;4.82;1.23;;;14.80;99.90;;;;;;5134493;27;20161;-79
2023/08/08 03:47:41;;;;;;;7.40;2.40;;;14.80;99.90;;;;;;5133705;27;20091;-78
2023/08/08 03:50:27;;;;;;;7.25;1.67;;;14.80;99.90;;;;;;5133900;27;20111;-79
2023/08/08 03:53:13;;;;;;;14.60;1.65;;;14.80;99.90;;;;;;5134969;27;20051;-79
2023/08/08 03:55:59;;;;;;;7.93;1.60;;;14.90;99.90;;;;;;5135530;27;20551;-79
2023/08/08 03:58:46;;;;;;;13.63;2.13;;;14.90;99.90;;;;;;5124766;27;20657;-77
2023/08/08 04:01:32;;;;;;;5.45;1.30;;;14.90;99.90;;;;;;5607632;22;20075;-78
2023/08/08 04:04:18;;;;;;;5.65;1.20;;;14.90;99.90;;;;;;5076900;28;20048;-78
2023/08/08 04:07:04;;;;;;;7.55;1.80;;;14.90;99.90;;;;;;5093440;28;20404;-79
2023/08/08 04:09:50;;;;;;;7.25;1.75;;;14.90;99.90;;;;;;5074619;28;20054;-79
2023/08/08 04:12:36;;;;;;;9.50;1.90;;;14.90;99.90;;;;;;5078428;28;20079;-80
2023/08/08 04:15:23;;;;;;;8.18;1.63;;;14.90;99.90;;;;;;5092828;28;20084;-79
2023/08/08 04:18:09;;;;;;;15.52;1.77;;;15.00;99.90;;;;;;5092206;28;20109;-79
2023/08/08 04:20:55;;;;;;;7.32;1.30;;;15.00;99.90;;;;;;5091777;28;20052;-79
2023/08/08 04:23:41;;;;;;;7.00;1.58;;;14.90;99.90;;;;;;5092028;28;20078;-80
2023/08/08 04:26:27;;;;;;;8.35;1.25;;;14.90;99.90;;;;;;5091872;28;20067;-79
2023/08/08 04:29:13;;;;;;;7.53;1.73;;;15.00;99.90;;;;;;5073481;28;20054;-79
2023/08/08 04:31:59;;;;;;;10.77;1.65;;;15.00;99.90;;;;;;5090322;28;20060;-79
2023/08/08 04:34:45;;;;;;;12.20;2.17;;;15.00;99.90;;;;;;5090432;28;20492;-80
2023/08/08 04:37:31;;;;;;;8.88;1.80;;;15.00;99.90;;;;;;5090489;28;20056;-81
2023/08/08 04:40:17;;;;;;;7.28;1.45;;;15.00;99.90;;;;;;5073463;28;20086;-80
2023/08/08 04:43:04;;;;;;;9.90;1.50;;;14.90;99.90;;;;;;5091534;28;20059;-79
2023/08/08 04:45:51;;;;;;;9.95;1.98;;;15.00;99.90;;;;;;5077282;28;20450;-79
2023/08/08 04:48:37;;;;;;;7.63;1.88;;;15.00;99.90;;;;;;5091486;28;20055;-79
2023/08/08 04:51:23;;;;;;;10.55;1.40;;;14.90;99.90;;;;;;5092263;28;20071;-79
2023/08/08 04:54:10;;;;;;;19.13;2.08;;;14.90;99.90;;;;;;5092295;28;20498;-78
2023/08/08 04:56:56;;;;;;;14.25;2.40;;;14.90;99.90;;;;;;5073141;28;20048;-79
2023/08/08 04:59:42;;;;;;;8.45;1.88;;;14.90;99.90;;;;;;5091061;28;20047;-80
2023/08/08 05:02:28;;;;;;;7.82;1.83;;;14.90;99.90;;;;;;5091531;28;20079;-80
2023/08/08 05:05:15;;;;;;;5.95;1.83;;;15.00;99.90;;;;;;5077190;28;20098;-80
2023/08/08 05:08:01;;;;;;;7.57;1.50;;;15.10;99.90;;;;;;5091555;28;20048;-80
2023/08/08 05:10:47;;;;;;;9.23;2.28;;;15.10;99.90;;;;;;5091987;28;20103;-80
2023/08/08 05:13:33;;;;;;;9.98;1.42;;;15.10;99.90;;;;;;5059496;28;20059;-79
2023/08/08 05:16:19;;;;;;;6.45;1.73;;;15.20;99.90;;;;;;5090607;28;20097;-80
2023/08/08 05:19:05;;;;;;;9.77;1.63;;;15.30;99.90;;;;;;5091649;28;20048;-79
2023/08/08 05:21:52;;;;;;;7.85;1.40;;;15.20;99.90;;;;;;5092167;28;20044;-80
2023/08/08 05:24:39;;;;;;;10.13;1.73;;;15.30;99.90;;;;;;5090013;28;20044;-80
2023/08/08 05:27:25;;;;;;;8.52;1.50;;;15.30;99.90;;;;;;5073321;28;20503;-80
2023/08/08 05:30:11;;;;;;;11.70;1.80;;;15.30;99.90;;;;;;5091881;28;20051;-80
2023/08/08 05:32:57;;;;;;;8.63;1.70;;;15.30;99.90;;;;;;5072648;28;20036;-79
2023/08/08 05:35:43;;;;;;;9.68;1.67;;;15.20;99.90;;;;;;5090215;28;20048;-80
2023/08/08 05:38:29;;;;;;;7.25;1.20;;;15.20;99.90;;;;;;5072091;28;20086;-80
2023/08/08 05:41:15;;;;;;;11.70;1.58;;;15.30;99.90;;;;;;5089475;28;20052;-79
2023/08/08 05:44:02;;;;;;;17.00;2.38;;;15.30;99.90;;;;;;5072618;28;20092;-79
2023/08/08 05:46:48;;;;;;;9.73;2.40;;;15.30;99.90;;;;;;5090209;28;20078;-80
2023/08/08 05:49:34;;;;;;;11.02;1.95;;;15.30;99.90;;;;;;5059164;28;20048;-79
2023/08/08 05:52:21;;;;;;;9.38;2.17;;;15.30;99.90;;;;;;5045611;28;20580;-80
2023/08/08 05:55:08;;;;;;;8.02;1.63;;;15.20;99.90;;;;;;5090420;28;20131;-80
2023/08/08 05:57:54;;;;;;;8.75;1.70;;;15.30;99.90;;;;;;5058656;28;20040;-79
2023/08/08 06:00:42;;;;;;;20.13;2.92;;;15.50;99.90;;;;;;5072622;28;20113;-80
2023/08/08 06:03:28;;;;;;;7.47;1.13;;;15.60;99.90;;;;;;5090935;28;20051;-79
2023/08/08 06:06:14;;;;;;;9.15;2.03;;;15.80;99.90;;;;;;5090283;28;20055;-79
2023/08/08 06:09:01;;;;;;;9.15;1.60;;;16.00;99.90;;;;;;5090323;28;20388;-80
2023/08/08 06:11:47;;;;;;;5.55;1.65;;;16.10;99.90;;;;;;5090735;28;20095;-80
2023/08/08 06:14:33;;;;;;;7.70;2.40;;;16.20;99.90;;;;;;5089969;28;20044;-80
2023/08/08 06:17:19;;;;;;;4.40;1.15;;;16.30;99.90;;;;;;5090414;28;20112;-78
2023/08/08 06:20:07;;;;;;;11.65;1.77;;;16.50;99.90;;;;;;5072949;28;20131;-81
2023/08/08 06:22:54;;;;;;;10.13;2.38;;;16.60;99.90;;;;;;5089799;28;20544;-79
2023/08/08 06:25:40;;;;;;;7.53;1.50;;;16.70;99.90;;;;;;5090739;28;20128;-78
2023/08/08 06:28:26;;;;;;;7.45;1.50;;;16.60;99.90;;;;;;5075447;28;20050;-79
2023/08/08 06:31:12;;;;;;;12.07;2.60;;;16.70;99.90;;;;;;5071883;28;20044;-80
2023/08/08 06:33:58;;;;;;;5.78;1.35;;;16.80;99.90;;;;;;5088795;28;20468;-80
2023/08/08 06:36:46;;;;;;;7.30;1.42;;;16.70;99.90;;;;;;5089947;28;20449;-80
2023/08/08 06:39:33;;;;;;;11.13;1.95;;;16.70;99.90;;;;;;5058563;28;20055;-79
2023/08/08 06:42:19;;;;;;;5.05;1.75;;;16.70;99.90;;;;;;5089932;28;20040;-78
2023/08/08 06:45:06;;;;;;;10.52;1.98;;;16.90;99.90;;;;;;5090933;28;20098;-78
2023/08/08 06:47:52;;;;;;;9.15;1.70;;;17.00;99.90;;;;;;5058383;28;20189;-77
2023/08/08 06:50:39;;;;;;;6.80;1.77;;;17.10;99.90;;;;;;5071721;28;20096;-78
2023/08/08 06:53:25;;;;;;;4.45;1.60;;;17.30;99.90;;;;;;5090233;28;20109;-79
2023/08/08 06:56:11;;;;;;;4.60;1.00;;;17.40;99.90;;;;;;5089910;28;20048;-78
2023/08/08 06:58:57;;;;;;;4.72;1.35;;;17.50;99.90;;;;;;5088835;28;20055;-79
2023/08/08 07:01:44;;;;;;;10.27;1.25;;;17.60;99.90;;;;;;5073953;28;20067;-78
2023/08/08 07:04:30;;;;;;;9.65;1.77;;;17.50;99.90;;;;;;5073996;28;20048;-79
2023/08/08 07:07:16;;;;;;;5.63;1.40;;;17.50;99.90;;;;;;5088917;28;20044;-79
2023/08/08 07:10:06;;;;;;;9.45;1.42;;;17.30;99.90;;;;;;5089870;28;20079;-77
2023/08/08 07:12:52;;;;;;;7.25;1.15;;;17.30;99.90;;;;;;5089480;28;20127;-79
2023/08/08 07:15:38;;;;;;;8.32;1.60;;;17.30;99.90;;;;;;5058363;28;20047;-77
2023/08/08 07:18:24;;;;;;;6.90;1.05;;;17.30;99.90;;;;;;5090232;28;20186;-78
2023/08/08 07:21:11;;;;;;;6.43;1.58;;;17.40;99.90;;;;;;5075862;28;20048;-78
2023/08/08 07:23:57;;;;;;;8.68;1.25;;;17.50;99.90;;;;;;5092365;28;20055;-78
2023/08/08 07:26:44;;;;;;;7.95;1.38;;;17.60;99.90;;;;;;5093564;28;20052;-77
2023/08/08 07:29:30;;;;;;;8.45;1.90;;;17.70;99.90;;;;;;5075579;28;20130;-78
2023/08/08 07:32:17;;;;;;;10.00;1.60;;;17.60;99.90;;;;;;5093661;28;20048;-77
2023/08/08 07:35:05;;;;;;;11.52;1.88;;;17.80;99.90;;;;;;5093536;28;20086;-77
2023/08/08 07:37:51;;;;;;;12.93;2.55;;;17.60;99.90;;;;;;5078884;28;20070;-79
2023/08/08 07:40:40;;;;;;;7.25;1.77;;;17.50;99.90;;;;;;5075871;28;20091;-78
2023/08/08 07:43:27;;;;;;;8.48;1.50;;;17.70;99.90;;;;;;5093631;28;20091;-79
2023/08/08 07:46:14;;;;;;;10.50;2.00;;;17.90;99.90;;;;;;5093694;28;20142;-79
2023/08/08 07:49:03;;;;;;;8.75;0.95;;;17.90;99.90;;;;;;5093467;28;20052;-80
2023/08/08 07:51:49;;;;;;;9.80;2.60;;;18.10;99.90;;;;;;5093344;28;20036;-79
2023/08/08 07:54:35;;;;;;;11.90;1.52;;;17.90;99.90;;;;;;5075073;28;20044;-79
2023/08/08 07:57:21;;;;;;;6.38;1.80;;;17.80;99.90;;;;;;5092670;28;20043;-79
2023/08/08 08:00:11;;;;;;;8.23;1.73;;;17.80;99.90;;;;;;5078083;28;20055;-80
2023/08/08 08:02:57;;;;;;;11.38;2.53;;;17.70;99.90;;;;;;5074390;28;20097;-80
2023/08/08 08:05:44;;;;;;;7.82;1.60;;;17.70;99.90;;;;;;5061062;28;20521;-78
2023/08/08 08:08:30;;;;;;;8.45;1.20;;;17.60;99.90;;;;;;5091859;28;20472;-79
2023/08/08 08:11:16;;;;;;;10.27;1.48;;;17.60;99.90;;;;;;5092836;28;20388;-78
2023/08/08 08:14:03;;;;;;;6.40;1.70;;;17.60;99.90;;;;;;5092979;28;20135;-79
2023/08/08 08:16:49;;;;;;;6.93;2.03;;;17.60;99.90;;;;;;5093089;28;20047;-79
2023/08/08 08:19:36;;;;;;;8.88;1.30;;;17.60;99.90;;;;;;5092686;28;20411;-78
2023/08/08 08:22:23;;;;;;;10.05;2.50;;;17.70;99.90;;;;;;5061041;28;20048;-78
2023/08/08 08:25:09;;;;;;;8.57;1.60;;;17.80;99.90;;;;;;5074881;28;20571;-79
2023/08/08 08:27:55;;;;;;;6.18;1.33;;;18.10;99.90;;;;;;5074058;28;20109;-78
2023/08/08 08:30:41;;;;;;;9.23;1.50;;;18.10;99.90;;;;;;5091943;28;20482;-78
2023/08/08 08:33:27;;;;;;;6.80;1.63;;;18.00;99.90;;;;;;5073449;28;20090;-78
2023/08/08 08:36:14;;;;;;;12.77;1.65;;;18.00;99.90;;;;;;5091857;28;20067;-80
2023/08/08 08:39:00;;;;;;;18.23;2.55;;;17.90;99.90;;;;;;5074624;28;20510;-76
2023/08/08 08:41:49;;;;;;;15.75;2.65;;;17.40;99.90;;;;;;5092869;28;20048;-77
2023/08/08 08:44:36;;;;;;;7.68;1.48;;;16.90;99.90;;;;;;5091914;28;20052;-77
2023/08/08 08:47:24;;;;;;;11.23;1.73;;;16.50;99.90;;;;;;5073966;28;20044;-76
2023/08/08 08:50:10;;;;;;;11.68;1.35;;;16.30;99.90;;;;;;5090167;28;20048;-77
2023/08/08 08:52:59;;;;;;;11.50;1.70;;;16.20;99.90;;;;;;5074110;28;20048;-77
2023/08/08 08:55:46;;;;;;;9.90;2.45;;;16.60;99.90;;;;;;5092048;28;20438;-77
2023/08/08 08:58:32;;;;;;;9.35;2.00;;;17.10;99.90;;;;;;5077484;28;20052;-78
2023/08/08 09:01:19;;;;;;;9.38;1.98;;;17.30;99.90;;;;;;5075974;28;20060;-77
2023/08/08 09:04:07;;;;;;;8.20;1.23;;;17.40;99.90;;;;;;5092425;28;20051;-77
2023/08/08 09:06:54;;;;;;;9.02;1.60;;;17.60;99.90;;;;;;5091466;28;20079;-79
2023/08/08 09:09:43;;;;;;;8.18;1.65;;;17.80;99.90;;;;;;5072167;28;20099;-77
2023/08/08 09:12:31;;;;;;;6.60;1.90;;;17.80;99.90;;;;;;5091397;28;20040;-78
2023/08/08 09:15:17;;;;;;;6.68;1.35;;;17.80;99.90;;;;;;5090959;28;20471;-78
2023/08/08 09:18:04;;;;;;;6.43;1.23;;;17.50;99.90;;;;;;5091809;28;20047;-79
2023/08/08 09:20:50;;;;;;;8.27;1.20;;;17.20;99.90;;;;;;5090302;28;20048;-78
2023/08/08 09:23:38;;;;;;;8.85;1.40;;;17.10;99.90;;;;;;5076583;28;20048;-79
2023/08/08 09:26:24;;;;;;;6.90;1.20;;;17.20;99.90;;;;;;5092139;28;20126;-79
2023/08/08 09:29:15;;;;;;;9.43;1.27;;;17.60;99.90;;;;;;5091274;28;20390;-78
2023/08/08 09:32:04;;;;;;;8.98;1.55;;;18.00;99.90;;;;;;5059760;28;20549;-78
2023/08/08 09:34:51;;;;;;;8.82;1.38;;;18.30;99.90;;;;;;5089772;28;20048;-78
2023/08/08 09:37:38;;;;;;;8.93;1.20;;;18.30;99.90;;;;;;5072793;28;20055;-77
2023/08/08 09:40:25;;;;;;;7.57;0.75;;;18.60;99.90;;;;;;5072910;28;20047;-77
2023/08/08 09:43:11;;;;;;;8.88;1.25;;;18.90;99.90;;;;;;5091115;28;20126;-77
2023/08/08 09:45:58;;;;;;;6.32;1.10;;;18.90;99.90;;;;;;5090117;28;20048;-78
2023/08/08 09:48:44;;;;;;;3.47;1.08;;;19.10;99.90;;;;;;5091381;28;20040;-79
2023/08/08 09:51:30;;;;;;;8.27;1.38;;;19.20;99.90;;;;;;5090670;28;20051;-78
2023/08/08 09:54:17;;;;;;;6.50;1.42;;;19.30;99.90;;;;;;5073291;28;20052;-79
2023/08/08 09:57:04;;;;;;;5.07;1.48;;;19.50;99.90;;;;;;5058957;28;20089;-78
2023/08/08 09:59:51;;;;;;;9.23;1.40;;;19.60;99.90;;;;;;5089158;28;20170;-79
2023/08/08 10:02:38;;;;;;;9.13;1.52;;;19.90;99.90;;;;;;5068665;28;20052;-78
2023/08/08 10:05:25;;;;;;;10.43;1.50;;;20.00;99.90;;;;;;5052351;28;20102;-78
2023/08/08 10:08:12;;;;;;;5.00;1.25;;;20.10;99.90;;;;;;5052523;28;20135;-79
2023/08/08 10:10:58;;;;;;;13.73;1.60;;;19.90;99.90;;;;;;5068827;28;20254;-78
2023/08/08 10:13:49;;;;;;;8.68;1.42;;;19.90;99.90;;;;;;5052300;28;20051;-79
2023/08/08 10:16:37;;;;;;;8.13;1.63;;;20.00;99.90;;;;;;5051117;28;20049;-78
2023/08/08 10:19:23;;;;;;;7.22;1.45;;;20.10;99.90;;;;;;5052186;28;20052;-79
2023/08/08 10:22:10;;;;;;;9.05;1.73;;;20.30;99.90;;;;;;5069282;28;20479;-79
2023/08/08 10:24:56;;;;;;;6.35;1.15;;;20.10;99.90;;;;;;5051547;28;20090;-80
2023/08/08 10:27:42;;;;;;;10.38;1.20;;;20.10;99.90;;;;;;5069132;28;20052;-79
2023/08/08 10:30:28;;;;;;;9.00;1.40;;;19.90;99.90;;;;;;5050686;28;20060;-79
2023/08/08 10:33:19;;;;;;;8.23;1.60;;;20.00;99.90;;;;;;5069712;28;20127;-79
2023/08/08 10:36:07;;;;;;;7.22;1.75;;;20.10;99.90;;;;;;5068932;28;20076;-78
2023/08/08 10:38:57;;;;;;;8.00;1.20;;;20.30;99.90;;;;;;5051677;28;20167;-78
2023/08/08 10:41:46;;;;;;;8.10;1.80;;;20.50;99.90;;;;;;5069381;28;20053;-80
2023/08/08 10:44:42;;;;;;;6.78;2.00;;;20.50;99.90;;;;;;5052139;28;20060;-79
2023/08/08 10:47:34;;;;;;;6.28;1.85;;;20.60;99.90;;;;;;5039238;28;20052;-79
2023/08/08 10:50:23;;;;;;;5.65;1.20;;;20.80;99.90;;;;;;5069717;28;20048;-77
2023/08/08 10:53:10;;;;;;;8.00;1.58;;;20.10;99.90;;;;;;5069597;28;20500;-78
2023/08/08 10:56:01;;;;;;;9.02;1.58;;;19.70;99.90;;;;;;5052210;28;20063;-79
2023/08/08 10:58:48;;;;;;;10.40;1.55;;;19.80;99.90;;;;;;5072576;28;20041;-78
2023/08/08 11:01:37;;;;;;;7.07;1.65;;;20.20;99.90;;;;;;5072791;28;20060;-79
2023/08/08 11:04:25;;;;;;;9.88;1.52;;;20.40;99.90;;;;;;5057236;28;20130;-78
2023/08/08 11:07:13;;;;;;;10.82;1.75;;;20.80;99.90;;;;;;5072719;28;20044;-78
2023/08/08 11:10:00;;;;;;;8.00;1.38;;;20.80;99.90;;;;;;5058104;28;20079;-78
2023/08/08 11:13:03;;;;;;;10.02;1.50;;;21.20;99.90;;;;;;5073356;28;20424;-79
2023/08/08 11:15:49;;;;;;;7.25;1.40;;;21.40;99.20;;;;;;5072389;28;20135;-78
2023/08/08 11:18:35;;;;;;;8.93;1.50;;;21.60;98.80;;;;;;5072972;28;20048;-79
2023/08/08 11:21:23;;;;;;;6.53;1.20;;;21.60;98.50;;;;;;5073642;28;20381;-78
2023/08/08 11:24:10;;;;;;;11.70;1.83;;;21.50;98.10;;;;;;5058300;28;20048;-77
2023/08/08 11:26:58;;;;;;;12.88;1.80;;;20.60;99.90;;;;;;5072896;28;20060;-77
2023/08/08 11:29:51;;;;;;;8.45;1.60;;;20.10;99.90;;;;;;5057711;28;20048;-78
2023/08/08 11:32:37;;;;;;;9.35;1.85;;;20.10;99.90;;;;;;5072528;28;20075;-78
2023/08/08 11:35:24;;;;;;;10.95;1.98;;;19.80;99.90;;;;;;5073069;28;20052;-77
2023/08/08 11:38:11;;;;;;;10.65;1.67;;;20.20;99.90;;;;;;5055159;28;20045;-78
2023/08/08 11:40:57;;;;;;;9.45;1.40;;;20.30;99.90;;;;;;5055290;28;20082;-77
2023/08/08 11:43:44;;;;;;;5.45;1.55;;;21.00;99.90;;;;;;5073279;28;20407;-77
2023/08/08 11:46:30;;;;;;;9.90;1.55;;;21.30;99.70;;;;;;5072909;28;20055;-78
2023/08/08 11:49:17;;;;;;;3.88;0.98;;;21.70;99.30;;;;;;5071906;28;20056;-77
2023/08/08 11:52:07;;;;;;;9.30;1.83;;;21.90;98.50;;;;;;5073691;28;20055;-79
2023/08/08 11:54:53;;;;;;;5.18;1.17;;;22.20;97.90;;;;;;5040968;28;20147;-78
2023/08/08 11:57:40;;;;;;;9.77;1.88;;;21.70;97.50;;;;;;5072309;28;20037;-78
2023/08/08 12:00:29;;;;;;;6.90;1.52;;;21.00;98.00;;;;;;5071515;28;20048;-77
2023/08/08 12:03:18;;;;;;;5.85;1.00;;;20.80;97.90;;;;;;5057361;28;20141;-78
2023/08/08 12:06:15;;;;;;;5.75;1.05;;;21.30;98.40;;;;;;5071556;28;20132;-77
2023/08/08 12:09:03;;;;;;;8.50;1.40;;;21.00;97.30;;;;;;5071395;28;20548;-79
2023/08/08 12:11:50;;;;;;;8.90;1.88;;;21.10;98.20;;;;;;5039941;28;20072;-78
2023/08/08 12:14:38;;;;;;;10.43;1.00;;;21.30;98.50;;;;;;5039785;28;20055;-78
2023/08/08 12:17:25;;;;;;;6.28;1.20;;;21.70;97.40;;;;;;5042776;28;20056;-77
2023/08/08 12:20:11;;;;;;;4.65;1.30;;;22.10;97.10;;;;;;5071696;28;20044;-77
2023/08/08 12:22:59;;;;;;;7.88;1.60;;;22.40;97.00;;;;;;5071685;28;20048;-78
2023/08/08 12:25:46;;;;;;;9.48;1.48;;;22.40;96.30;;;;;;5054080;28;20045;-78
2023/08/08 12:28:32;;;;;;;11.20;1.88;;;22.30;95.80;;;;;;5071672;28;20049;-78
2023/08/08 12:31:18;;;;;;;5.15;1.25;;;22.10;95.80;;;;;;5053428;28;20055;-79
2023/08/08 12:34:05;;;;;;;9.32;1.45;;;21.80;96.00;;;;;;5054535;28;20650;-78
2023/08/08 12:36:51;;;;;;;7.28;1.42;;;21.80;96.40;;;;;;5073002;28;20041;-77
2023/08/08 12:39:37;;;;;;;9.65;2.08;;;21.80;96.80;;;;;;5053680;28;20049;-78
2023/08/08 12:42:23;;;;;;;8.30;2.30;;;21.60;97.00;;;;;;5071219;28;20571;-78
2023/08/08 12:45:10;;;;;;;5.93;1.02;;;21.10;97.50;;;;;;5071294;28;20411;-78
2023/08/08 12:47:56;;;;;;;10.80;1.55;;;21.30;97.30;;;;;;5039654;28;20056;-77
2023/08/08 12:50:42;;;;;;;5.85;1.40;;;21.50;97.10;;;;;;5070764;28;20044;-76
2023/08/08 12:53:29;;;;;;;8.98;1.73;;;21.30;97.10;;;;;;5071478;28;20080;-77
2023/08/08 12:56:15;;;;;;;8.77;1.80;;;21.80;97.30;;;;;;5052521;28;20098;-78
2023/08/08 12:59:02;;;;;;;6.78;1.77;;;22.40;96.90;;;;;;5071014;28;20048;-77
2023/08/08 13:01:48;;;;;;;6.70;1.52;;;22.60;96.20;;;;;;5070818;28;20056;-78
2023/08/08 13:04:35;;;;;;;10.13;1.77;;;22.20;95.70;;;;;;5053543;28;20047;-77
2023/08/08 13:07:21;;;;;;;10.35;1.30;;;21.80;95.90;;;;;;5053391;28;20052;-77
2023/08/08 13:10:07;;;;;;;8.35;1.60;;;21.20;96.60;;;;;;5070786;28;20048;-78
2023/08/08 13:12:55;;;;;;;12.05;1.90;;;20.80;97.80;;;;;;5071558;28;20056;-77
2023/08/08 13:15:41;;;;;;;7.80;1.60;;;21.00;97.50;;;;;;5070704;28;20040;-78
2023/08/08 13:18:27;;;;;;;8.57;1.38;;;20.90;97.10;;;;;;5070038;28;20048;-77
2023/08/08 13:21:13;;;;;;;7.00;1.40;;;21.60;97.10;;;;;;5039417;28;20185;-78
2023/08/08 13:24:00;;;;;;;8.50;1.77;;;22.10;96.20;;;;;;5069946;28;20048;-77
2023/08/08 13:26:46;;;;;;;9.70;1.83;;;22.60;95.30;;;;;;5070187;28;20044;-76
2023/08/08 13:29:32;;;;;;;6.63;1.58;;;23.20;95.30;;;;;;5052257;28;20048;-77
2023/08/08 13:32:18;;;;;;;5.88;1.58;;;23.80;94.40;;;;;;5070227;28;20044;-77
2023/08/08 13:35:04;;;;;;;12.75;2.45;;;24.20;93.70;;;;;;5069598;28;20516;-77
2023/08/08 13:37:52;;;;;;;7.80;1.30;;;24.00;92.70;;;;;;5052636;28;20094;-78
2023/08/08 13:40:38;;;;;;;8.32;1.63;;;24.10;92.10;;;;;;5051556;28;20098;-77
2023/08/08 13:43:24;;;;;;;7.85;1.65;;;24.00;92.00;;;;;;5069727;28;20055;-78
2023/08/08 13:46:10;;;;;;;11.07;1.45;;;24.70;92.40;;;;;;5070420;28;20497;-77
2023/08/08 13:48:56;;;;;;;6.95;1.30;;;24.70;91.30;;;;;;5038553;28;20052;-77
2023/08/08 13:51:43;;;;;;;7.35;1.95;;;24.90;91.00;;;;;;5069882;28;20127;-78
2023/08/08 13:54:29;;;;;;;8.32;1.38;;;25.60;91.10;;;;;;5052586;28;20572;-77
2023/08/08 13:57:15;;;;;;;9.85;1.30;;;25.70;90.10;;;;;;5052549;28;20048;-76
2023/08/08 14:00:03;;;;;;;8.93;1.77;;;25.60;88.50;;;;;;5052322;28;20375;-78
2023/08/08 14:02:49;;;;;;;6.65;1.73;;;25.70;90.00;;;;;;5070961;28;20056;-76
2023/08/08 14:05:37;;;;;;;7.47;1.48;;;25.90;89.50;;;;;;5070464;28;20396;-76
2023/08/08 14:08:23;;;;;;;6.07;1.30;;;24.90;88.60;;;;;;5055210;28;20105;-78
2023/08/08 14:11:09;;;;;;;11.95;2.08;;;23.70;90.30;;;;;;5038182;28;20497;-77
2023/08/08 14:13:55;;;;;;;7.03;1.70;;;22.70;91.70;;;;;;5070257;28;20055;-78
2023/08/08 14:16:41;;;;;;;7.65;1.30;;;23.20;92.10;;;;;;5069248;28;20048;-77
2023/08/08 14:19:27;;;;;;;6.40;1.52;;;23.40;91.10;;;;;;5051855;28;20079;-78
2023/08/08 14:22:14;;;;;;;8.55;1.48;;;24.30;90.20;;;;;;5069535;28;20056;-78
2023/08/08 14:25:00;;;;;;;7.05;1.20;;;25.30;88.20;;;;;;5054708;28;20106;-78
2023/08/08 14:27:46;;;;;;;8.52;1.13;;;25.70;86.20;;;;;;5051913;28;20052;-78